Time;durP1;ratioP1;P1;durP2;ratioP2;P2;SDS_P1;SDS_P2;PMS_P1;PMS_P2;Temp;Humidity;BMP_temperature;BMP_pressure;BME280_temperature;BME280_humidity;BME280_pressure;Samples;Min_cycle;Max_cycle;Signal;HPM_P1;HPM_P2
2022/01/09 00:00:06;;;;;;;54.80;23.30;;;0.30;99.90;;;;;;5158945;27;20144;-67
2022/01/09 00:02:33;;;;;;;56.90;23.50;;;0.30;99.90;;;;;;5158894;27;20167;-67
2022/01/09 00:05:01;;;;;;;57.10;23.23;;;0.30;99.90;;;;;;5140800;27;20151;-67
2022/01/09 00:07:28;;;;;;;57.40;23.27;;;0.40;99.90;;;;;;5159044;27;20147;-67
2022/01/09 00:09:56;;;;;;;58.60;24.50;;;0.40;99.90;;;;;;5158776;27;20128;-67
2022/01/09 00:12:24;;;;;;;57.77;25.67;;;0.40;99.90;;;;;;5159159;27;20112;-67
2022/01/09 00:14:52;;;;;;;56.33;24.43;;;0.40;99.90;;;;;;5157456;27;20212;-67
2022/01/09 00:17:19;;;;;;;55.97;25.67;;;0.40;99.90;;;;;;5159277;27;20140;-67
2022/01/09 00:19:47;;;;;;;57.00;24.43;;;0.30;99.90;;;;;;5157945;27;20191;-67
2022/01/09 00:22:18;;;;;;;61.10;26.90;;;0.30;99.90;;;;;;5157761;27;20182;-67
2022/01/09 00:24:48;;;;;;;61.30;25.97;;;0.30;99.90;;;;;;5141168;27;20140;-67
2022/01/09 00:27:16;;;;;;;66.40;26.63;;;0.30;99.90;;;;;;5158772;27;20108;-67
2022/01/09 00:29:43;;;;;;;60.97;26.17;;;0.30;99.90;;;;;;5140046;27;20195;-67
2022/01/09 00:32:10;;;;;;;62.37;27.40;;;0.30;99.90;;;;;;5157538;27;20241;-67
2022/01/09 00:34:37;;;;;;;62.17;26.20;;;0.30;99.90;;;;;;5140075;27;20275;-67
2022/01/09 00:37:06;;;;;;;65.67;26.80;;;0.20;99.90;;;;;;5140562;27;20140;-67
2022/01/09 00:39:33;;;;;;;55.47;25.17;;;0.30;99.90;;;;;;5157407;27;20160;-67
2022/01/09 00:42:01;;;;;;;59.73;24.70;;;0.30;99.90;;;;;;5157641;27;20148;-67
2022/01/09 00:44:28;;;;;;;56.30;24.80;;;0.40;99.90;;;;;;5140107;27;20267;-67
2022/01/09 00:47:00;;;;;;;63.30;27.10;;;0.40;99.90;;;;;;5158476;27;20397;-67
2022/01/09 00:49:27;;;;;;;61.60;26.20;;;0.40;99.90;;;;;;5140444;27;20218;-67
2022/01/09 00:51:55;;;;;;;61.87;26.00;;;0.40;99.90;;;;;;5141084;27;20132;-67
2022/01/09 00:54:23;;;;;;;58.60;24.80;;;0.40;99.90;;;;;;5141406;27;20195;-67
2022/01/09 00:56:50;;;;;;;65.47;27.27;;;0.40;99.90;;;;;;5139937;27;20144;-67
2022/01/09 00:59:18;;;;;;;62.50;26.53;;;0.40;99.90;;;;;;5160194;27;20378;-67
2022/01/09 01:01:46;;;;;;;64.37;26.80;;;0.40;99.90;;;;;;5158401;27;20151;-67
2022/01/09 01:04:13;;;;;;;64.30;27.23;;;0.30;99.90;;;;;;5139687;27;20178;-67
2022/01/09 01:06:41;;;;;;;60.77;26.83;;;0.30;99.90;;;;;;5140251;27;20158;-66
2022/01/09 01:09:08;;;;;;;63.30;28.03;;;0.30;99.90;;;;;;5139553;27;20219;-67
2022/01/09 01:11:35;;;;;;;63.47;27.37;;;0.40;99.90;;;;;;5159494;27;20510;-67
2022/01/09 01:14:03;;;;;;;63.23;26.50;;;0.40;99.90;;;;;;5140550;27;20167;-67
2022/01/09 01:16:30;;;;;;;63.63;27.17;;;0.40;99.90;;;;;;5157155;27;20224;-67
2022/01/09 01:18:59;;;;;;;61.07;27.00;;;0.40;99.90;;;;;;5140718;27;20627;-67
2022/01/09 01:21:26;;;;;;;61.10;27.90;;;0.30;99.90;;;;;;5159197;27;20155;-67
2022/01/09 01:23:53;;;;;;;63.03;26.40;;;0.30;99.90;;;;;;5158246;27;20116;-67
2022/01/09 01:26:21;;;;;;;58.10;25.93;;;0.30;99.90;;;;;;5158371;27;20116;-67
2022/01/09 01:28:48;;;;;;;62.47;27.03;;;0.40;99.90;;;;;;5158320;27;20171;-67
2022/01/09 01:31:15;;;;;;;57.67;25.60;;;0.40;99.90;;;;;;5158795;27;20127;-67
2022/01/09 01:33:42;;;;;;;59.73;26.27;;;0.40;99.90;;;;;;5139542;27;20146;-67
2022/01/09 01:36:10;;;;;;;59.40;25.90;;;0.40;99.90;;;;;;5139577;27;20413;-67
2022/01/09 01:38:41;;;;;;;57.17;25.53;;;0.40;99.90;;;;;;5158132;27;20116;-67
2022/01/09 01:41:09;;;;;;;62.37;26.57;;;0.40;99.90;;;;;;5156864;27;20234;-67
2022/01/09 01:43:36;;;;;;;61.70;26.00;;;0.40;99.90;;;;;;5139086;27;20183;-67
2022/01/09 01:46:04;;;;;;;56.23;24.93;;;0.40;99.90;;;;;;5157285;27;20152;-67
2022/01/09 01:48:32;;;;;;;59.20;26.13;;;0.20;99.90;;;;;;5136342;28;20148;-67
2022/01/09 01:50:59;;;;;;;57.00;24.93;;;0.10;99.90;;;;;;5152302;27;20198;-67
2022/01/09 01:53:27;;;;;;;54.80;24.67;;;0.20;99.90;;;;;;5157289;27;20154;-67
2022/01/09 01:55:56;;;;;;;60.63;25.37;;;0.10;99.90;;;;;;5140502;27;20149;-67
2022/01/09 01:58:26;;;;;;;56.20;23.47;;;0.10;99.90;;;;;;5141809;27;20160;-67
2022/01/09 02:00:53;;;;;;;55.20;24.07;;;0.00;99.90;;;;;;5160494;27;20160;-67
2022/01/09 02:03:21;;;;;;;51.73;24.17;;;0.00;99.90;;;;;;5159716;27;20120;-67
2022/01/09 02:05:48;;;;;;;56.93;24.33;;;0.10;99.90;;;;;;5139834;27;20490;-67
2022/01/09 02:08:16;;;;;;;53.10;22.97;;;0.20;99.90;;;;;;5158991;27;20120;-67
2022/01/09 02:11:06;;;;;;;51.53;24.03;;;0.10;99.90;;;;;;5131346;27;20144;-67
2022/01/09 02:13:40;;;;;;;56.33;23.77;;;0.00;99.90;;;;;;5158450;27;20201;-67
2022/01/09 02:16:16;;;;;;;55.63;24.10;;;0.00;99.90;;;;;;5123368;27;20132;-67
2022/01/09 02:19:02;;;;;;;55.60;23.50;;;0.00;99.90;;;;;;5139754;27;20182;-67
2022/01/09 02:21:36;;;;;;;62.33;24.30;;;0.10;99.90;;;;;;5139375;27;20184;-67
2022/01/09 02:24:06;;;;;;;53.67;24.00;;;0.20;99.90;;;;;;5158005;27;20482;-67
2022/01/09 02:26:37;;;;;;;56.73;22.77;;;0.20;99.90;;;;;;5139199;27;20151;-67
2022/01/09 02:29:28;;;;;;;53.33;22.57;;;0.20;99.90;;;;;;5156403;27;20556;-67
2022/01/09 02:33:15;;;;;;;50.87;22.60;;;0.20;99.90;;;;;;5143920;27;20222;-67
2022/01/09 02:36:04;;;;;;;52.33;22.80;;;0.20;99.90;;;;;;5108708;28;20155;-67
2022/01/09 02:38:41;;;;;;;55.30;23.90;;;0.20;99.90;;;;;;5099176;28;20143;-67
2022/01/09 02:41:08;;;;;;;52.30;22.67;;;0.20;99.90;;;;;;5114730;27;20476;-67
2022/01/09 02:43:39;;;;;;;53.77;23.57;;;0.30;99.90;;;;;;5097211;28;20216;-67
2022/01/09 02:50:40;;;;;;;51.63;22.50;;;0.20;99.90;;;;;;5095312;28;20180;-67
2022/01/09 02:53:29;;;;;;;51.57;22.47;;;0.20;99.90;;;;;;5078257;28;20148;-67
2022/01/09 02:56:00;;;;;;;49.13;22.43;;;0.20;99.90;;;;;;5078426;28;20180;-67
2022/01/09 02:58:50;;;;;;;48.20;22.40;;;0.30;99.90;;;;;;5078259;28;20182;-67
2022/01/09 03:10:11;;;;;;;51.90;22.80;;;0.20;99.90;;;;;;4976280;28;20179;-67
2022/01/09 03:12:44;;;;;;;49.73;22.07;;;0.20;99.90;;;;;;4974698;28;20163;-67
2022/01/09 03:15:17;;;;;;;50.70;23.30;;;0.30;99.90;;;;;;5000954;28;20227;-67
2022/01/09 03:17:55;;;;;;;47.33;21.20;;;0.30;99.90;;;;;;5018547;28;20159;-67
2022/01/09 03:20:24;;;;;;;48.27;21.37;;;0.30;99.90;;;;;;5018673;28;20165;-67
2022/01/09 03:22:57;;;;;;;49.87;21.53;;;0.30;99.90;;;;;;5002128;28;20229;-67
2022/01/09 03:25:29;;;;;;;46.87;21.87;;;0.40;99.90;;;;;;5018721;28;20302;-67
2022/01/09 03:28:25;;;;;;;51.30;21.07;;;0.40;99.90;;;;;;5017438;28;20196;-66
2022/01/09 03:30:52;;;;;;;49.43;22.07;;;0.30;99.90;;;;;;5002126;28;20150;-67
2022/01/09 03:34:02;;;;;;;48.27;21.77;;;0.40;99.90;;;;;;5018441;28;20158;-67
2022/01/09 03:36:31;;;;;;;49.00;22.37;;;0.50;99.90;;;;;;4999251;28;20230;-67
2022/01/09 03:39:08;;;;;;;49.67;22.53;;;0.50;99.90;;;;;;4997562;28;20204;-67
2022/01/09 03:41:41;;;;;;;50.90;21.77;;;0.50;99.90;;;;;;4998606;28;20122;-67
2022/01/09 03:47:32;;;;;;;48.23;20.87;;;0.60;99.90;;;;;;5027192;28;20142;-67
2022/01/09 04:01:39;;;;;;;47.23;21.17;;;0.70;99.90;;;;;;4956766;29;20156;-67
2022/01/09 04:04:26;;;;;;;52.13;22.03;;;0.70;99.90;;;;;;4956616;28;20147;-67
2022/01/09 04:07:43;;;;;;;44.70;20.80;;;0.60;99.90;;;;;;4946040;28;20201;-67
2022/01/09 04:10:50;;;;;;;49.87;21.37;;;0.50;99.90;;;;;;4436226;32;20223;-67
2022/01/09 04:14:04;;;;;;;47.97;20.37;;;0.40;99.90;;;;;;4374871;32;20206;-67
2022/01/09 04:16:34;;;;;;;46.03;20.20;;;0.30;99.90;;;;;;4362153;32;20420;-68
2022/01/09 04:19:26;;;;;;;48.83;21.57;;;0.20;99.90;;;;;;4393800;32;20450;-68
2022/01/09 04:22:22;;;;;;;44.43;20.23;;;0.10;99.90;;;;;;4415667;32;20384;-67
2022/01/09 04:24:56;;;;;;;48.70;20.87;;;0.00;99.90;;;;;;4423412;32;20602;-68
2022/01/09 04:28:44;;;;;;;52.13;20.97;;;-0.10;99.90;;;;;;4436282;32;20545;-68
2022/01/09 04:31:50;;;;;;;48.17;20.77;;;-0.10;99.90;;;;;;4422817;32;20532;-67
2022/01/09 04:34:22;;;;;;;50.40;21.67;;;-0.20;99.90;;;;;;4436958;32;20479;-67
2022/01/09 04:37:02;;;;;;;48.90;22.27;;;-0.20;99.90;;;;;;4422416;32;20170;-67
2022/01/09 04:39:30;;;;;;;47.07;21.90;;;-0.20;99.90;;;;;;4422500;32;20538;-68
2022/01/09 04:42:07;;;;;;;46.70;21.80;;;-0.20;99.90;;;;;;4423308;32;20176;-67
2022/01/09 04:48:07;;;;;;;47.13;20.90;;;-0.30;99.90;;;;;;4331603;33;20593;-67
2022/01/09 04:50:58;;;;;;;51.63;21.23;;;-0.30;99.90;;;;;;4332204;33;20278;-67
2022/01/09 04:53:28;;;;;;;45.27;20.47;;;-0.30;99.90;;;;;;4331767;33;20179;-67
2022/01/09 04:55:59;;;;;;;50.73;21.30;;;-0.20;99.90;;;;;;4331773;33;20206;-67
2022/01/09 04:58:27;;;;;;;46.13;21.23;;;-0.30;99.90;;;;;;4331753;33;20658;-67
2022/01/09 05:00:56;;;;;;;53.67;21.27;;;-0.40;99.90;;;;;;4331424;33;20205;-67
2022/01/09 05:03:29;;;;;;;49.73;20.77;;;-0.40;99.90;;;;;;4331383;33;20199;-67
2022/01/09 05:05:59;;;;;;;52.43;21.80;;;-0.40;99.90;;;;;;4331593;33;20191;-68
2022/01/09 05:08:34;;;;;;;46.33;20.83;;;-0.50;99.90;;;;;;4343500;33;20179;-67
2022/01/09 05:11:08;;;;;;;54.20;21.17;;;-0.60;99.90;;;;;;4332103;33;20528;-67
2022/01/09 05:13:38;;;;;;;51.90;22.70;;;-0.60;99.90;;;;;;4344833;33;20582;-67
2022/01/09 05:16:06;;;;;;;54.07;22.27;;;-0.60;99.90;;;;;;4331438;33;20526;-68
2022/01/09 05:18:42;;;;;;;50.50;21.00;;;-0.70;99.90;;;;;;4332195;33;20169;-67
2022/01/09 05:21:17;;;;;;;46.53;20.70;;;-0.80;99.90;;;;;;4322880;33;20178;-67
2022/01/09 05:23:46;;;;;;;49.63;21.90;;;-0.80;99.90;;;;;;4343925;32;20193;-67
2022/01/09 05:26:16;;;;;;;50.63;22.20;;;-0.80;99.90;;;;;;4395534;32;20564;-67
2022/01/09 05:28:44;;;;;;;47.93;21.43;;;-0.80;99.90;;;;;;4396756;32;20225;-67
2022/01/09 05:31:11;;;;;;;50.10;21.47;;;-0.80;99.90;;;;;;4396651;32;20201;-68
2022/01/09 05:33:42;;;;;;;48.93;21.93;;;-0.80;99.90;;;;;;4396307;32;20428;-67
2022/01/09 05:37:27;;;;;;;50.83;21.60;;;-0.80;99.90;;;;;;4396498;32;20217;-67
2022/01/09 05:40:42;;;;;;;50.70;21.63;;;-1.00;99.90;;;;;;4363139;32;20259;-67
2022/01/09 05:47:06;;;;;;;52.67;21.07;;;-1.10;99.90;;;;;;4289734;33;20248;-67
2022/01/09 05:50:12;;;;;;;52.47;21.83;;;-1.10;99.90;;;;;;4289767;33;20305;-67
2022/01/09 05:53:03;;;;;;;49.93;21.27;;;-1.10;99.90;;;;;;4277629;33;20189;-67
2022/01/09 05:55:54;;;;;;;48.43;20.80;;;-1.20;99.90;;;;;;4289729;33;20245;-67
2022/01/09 05:58:36;;;;;;;46.93;20.83;;;-1.20;99.90;;;;;;4289924;33;20185;-67
2022/01/09 06:01:18;;;;;;;47.67;21.00;;;-1.20;99.90;;;;;;4289816;33;20212;-67
2022/01/09 06:04:06;;;;;;;51.23;22.13;;;-1.30;99.90;;;;;;4289726;33;20219;-67
2022/01/09 06:06:50;;;;;;;49.87;20.93;;;-1.20;99.90;;;;;;4289698;33;20182;-67
2022/01/09 06:09:44;;;;;;;55.47;22.73;;;-1.30;99.90;;;;;;4289427;33;20378;-67
2022/01/09 06:12:35;;;;;;;48.70;21.30;;;-1.30;99.90;;;;;;4289448;33;20466;-67
2022/01/09 06:15:20;;;;;;;49.10;21.70;;;-1.30;99.90;;;;;;4279099;33;20226;-67
2022/01/09 06:17:48;;;;;;;48.77;21.93;;;-1.40;99.90;;;;;;4305915;33;20454;-67
2022/01/09 06:20:19;;;;;;;49.83;22.43;;;-1.40;99.90;;;;;;4326557;33;20184;-67
2022/01/09 06:22:53;;;;;;;47.17;22.47;;;-1.50;99.90;;;;;;4341725;32;20536;-67
2022/01/09 06:25:21;;;;;;;51.43;21.73;;;-1.50;99.90;;;;;;4397132;32;20171;-67
2022/01/09 06:27:54;;;;;;;55.20;22.23;;;-1.50;99.90;;;;;;4396359;32;20237;-67
2022/01/09 06:30:37;;;;;;;58.07;22.40;;;-1.50;99.90;;;;;;4410473;32;20412;-67
2022/01/09 06:33:05;;;;;;;52.20;22.40;;;-1.50;99.90;;;;;;4394708;32;20209;-67
2022/01/09 06:35:34;;;;;;;48.43;22.00;;;-1.60;99.90;;;;;;4409259;32;20147;-67
2022/01/09 06:38:05;;;;;;;57.23;22.87;;;-1.60;99.90;;;;;;4395375;32;20502;-67
2022/01/09 06:40:40;;;;;;;54.53;22.80;;;-1.70;99.90;;;;;;4395543;32;20560;-67
2022/01/09 06:43:08;;;;;;;49.70;22.03;;;-1.70;99.90;;;;;;4409434;32;20520;-67
2022/01/09 06:45:36;;;;;;;50.23;21.43;;;-1.80;99.90;;;;;;4409490;32;20139;-67
2022/01/09 06:48:04;;;;;;;53.77;22.57;;;-1.80;99.90;;;;;;4395886;32;20167;-67
2022/01/09 06:50:35;;;;;;;53.73;23.23;;;-1.80;99.90;;;;;;4395536;32;20619;-67
2022/01/09 06:53:04;;;;;;;50.80;22.40;;;-1.80;99.90;;;;;;4383007;32;20186;-67
2022/01/09 06:55:38;;;;;;;51.50;21.90;;;-1.80;99.90;;;;;;4395563;32;20219;-67
2022/01/09 06:58:09;;;;;;;53.73;22.83;;;-1.70;99.90;;;;;;4409612;32;20139;-67
2022/01/09 07:00:36;;;;;;;53.77;23.63;;;-1.80;99.90;;;;;;4409763;32;20151;-67
2022/01/09 07:03:21;;;;;;;52.07;22.57;;;-1.80;99.90;;;;;;4409887;32;20187;-67
2022/01/09 07:05:49;;;;;;;55.83;23.07;;;-1.80;99.90;;;;;;4395112;32;20216;-67
2022/01/09 07:08:17;;;;;;;53.20;22.77;;;-1.80;99.90;;;;;;4397280;32;21311;-67
2022/01/09 07:10:51;;;;;;;54.47;22.70;;;-1.80;99.90;;;;;;4410609;32;20175;-67
2022/01/09 07:13:24;;;;;;;51.00;22.83;;;-1.80;99.90;;;;;;4410045;32;20333;-67
2022/01/09 07:16:02;;;;;;;49.93;22.60;;;-1.70;99.90;;;;;;4410320;32;20277;-67
2022/01/09 07:18:36;;;;;;;56.63;23.13;;;-1.70;99.90;;;;;;4410273;32;20174;-67
2022/01/09 07:21:07;;;;;;;52.17;22.43;;;-1.70;99.90;;;;;;4423972;32;20198;-67
2022/01/09 07:23:41;;;;;;;56.13;23.47;;;-1.70;99.90;;;;;;4409135;32;20229;-67
2022/01/09 07:26:08;;;;;;;52.53;22.43;;;-1.60;99.90;;;;;;4411060;32;20250;-67
2022/01/09 07:28:57;;;;;;;50.77;22.17;;;-1.60;99.90;;;;;;4409872;32;20257;-67
2022/01/09 07:31:45;;;;;;;57.60;22.63;;;-1.60;99.90;;;;;;4422302;32;20432;-67
2022/01/09 07:34:29;;;;;;;53.00;22.47;;;-1.60;99.90;;;;;;4410738;32;20204;-67
2022/01/09 07:37:06;;;;;;;51.47;22.27;;;-1.50;99.90;;;;;;4411402;32;20478;-67
2022/01/09 07:39:34;;;;;;;50.93;22.10;;;-1.50;99.90;;;;;;4423880;32;20147;-67
2022/01/09 07:42:09;;;;;;;48.63;23.93;;;-1.40;99.90;;;;;;4423832;32;20508;-67
2022/01/09 07:45:09;;;;;;;54.00;23.20;;;-1.40;99.90;;;;;;4409523;32;20559;-67
2022/01/09 07:47:45;;;;;;;51.93;22.80;;;-1.40;99.90;;;;;;4349358;33;20433;-67
2022/01/09 07:50:18;;;;;;;53.30;23.50;;;-1.40;99.90;;;;;;4349025;33;20247;-67
2022/01/09 07:52:54;;;;;;;54.93;23.43;;;-1.40;99.90;;;;;;4361399;32;20156;-67
2022/01/09 07:55:28;;;;;;;54.00;23.07;;;-1.40;99.90;;;;;;4349064;33;20238;-67
2022/01/09 07:58:02;;;;;;;53.43;22.67;;;-1.20;99.90;;;;;;4361279;32;20426;-67
2022/01/09 08:00:30;;;;;;;58.43;23.87;;;-0.90;99.90;;;;;;4361465;32;20174;-67
2022/01/09 08:03:04;;;;;;;50.87;22.50;;;-0.70;99.90;;;;;;4361059;32;20477;-67
2022/01/09 08:06:02;;;;;;;55.73;23.70;;;-0.50;99.90;;;;;;4349216;33;20228;-66
2022/01/09 08:08:49;;;;;;;53.30;23.80;;;-0.30;99.90;;;;;;4339348;33;20187;-67
2022/01/09 08:11:25;;;;;;;50.83;23.63;;;-0.20;99.90;;;;;;4348260;33;20176;-67
2022/01/09 08:13:55;;;;;;;55.93;24.37;;;-0.10;99.90;;;;;;4360893;33;20178;-67
2022/01/09 08:16:23;;;;;;;55.70;24.10;;;0.00;99.90;;;;;;4362380;33;20164;-67
2022/01/09 08:18:59;;;;;;;51.97;24.43;;;0.10;99.90;;;;;;4348389;32;20188;-67
2022/01/09 08:21:29;;;;;;;50.50;23.77;;;0.20;99.90;;;;;;4361729;33;20168;-67
2022/01/09 08:24:15;;;;;;;59.90;24.87;;;0.30;99.90;;;;;;4365298;32;20182;-67
2022/01/09 08:27:10;;;;;;;57.97;24.57;;;0.40;99.90;;;;;;4409189;32;20178;-67
2022/01/09 08:29:38;;;;;;;54.77;24.03;;;0.70;99.90;;;;;;4410113;32;20187;-67
2022/01/09 08:32:07;;;;;;;58.43;25.53;;;1.00;99.90;;;;;;4408804;32;20301;-67
2022/01/09 08:34:40;;;;;;;50.57;23.87;;;1.20;99.90;;;;;;4409236;32;20205;-67
2022/01/09 08:37:14;;;;;;;57.10;24.43;;;1.40;99.90;;;;;;4409000;32;20231;-67
2022/01/09 08:39:54;;;;;;;56.70;25.30;;;1.60;99.90;;;;;;4409040;32;20271;-67
2022/01/09 08:42:30;;;;;;;50.50;23.60;;;1.80;99.90;;;;;;4423586;32;20208;-67
2022/01/09 08:45:01;;;;;;;54.23;24.53;;;1.90;99.90;;;;;;4423037;32;20210;-67
2022/01/09 08:47:28;;;;;;;55.47;24.07;;;2.00;99.90;;;;;;4423340;32;20151;-67
2022/01/09 08:49:56;;;;;;;52.50;24.37;;;1.70;99.90;;;;;;4409113;32;20245;-67
2022/01/09 08:52:24;;;;;;;50.40;23.33;;;1.50;99.90;;;;;;4422522;32;20197;-67
2022/01/09 08:54:51;;;;;;;48.40;23.37;;;1.30;99.90;;;;;;4409282;32;20206;-67
2022/01/09 08:57:19;;;;;;;51.07;23.37;;;1.10;99.90;;;;;;4411788;32;20198;-67
2022/01/09 09:00:11;;;;;;;49.67;23.03;;;0.90;99.90;;;;;;4411767;32;20179;-67
2022/01/09 09:02:43;;;;;;;49.67;23.00;;;0.90;99.90;;;;;;4411508;32;20187;-67
2022/01/09 09:05:20;;;;;;;49.00;22.33;;;0.70;99.90;;;;;;4412414;32;20181;-68
2022/01/09 09:07:50;;;;;;;51.40;23.00;;;0.50;99.90;;;;;;4411286;32;20216;-68
2022/01/09 09:10:20;;;;;;;53.50;23.27;;;0.50;99.90;;;;;;4425495;32;20439;-68
2022/01/09 09:12:47;;;;;;;49.70;23.90;;;0.50;99.90;;;;;;4411336;32;20200;-68
2022/01/09 09:15:14;;;;;;;49.23;22.80;;;0.40;99.90;;;;;;4412162;32;20195;-68
2022/01/09 09:17:42;;;;;;;50.30;22.87;;;0.40;99.90;;;;;;4411010;32;20191;-67
2022/01/09 09:20:09;;;;;;;51.23;23.20;;;0.40;99.90;;;;;;4425123;32;20196;-68
2022/01/09 09:22:38;;;;;;;51.47;24.10;;;0.30;99.90;;;;;;4411142;32;20227;-67
2022/01/09 09:25:05;;;;;;;51.80;23.63;;;0.20;99.90;;;;;;4411611;32;20190;-67
2022/01/09 09:27:33;;;;;;;49.83;23.60;;;0.30;99.90;;;;;;4410937;32;20267;-67
2022/01/09 09:30:05;;;;;;;49.57;22.57;;;0.30;99.90;;;;;;4411363;32;20217;-67
2022/01/09 09:32:32;;;;;;;45.93;22.33;;;0.40;99.90;;;;;;4398833;32;20220;-67
2022/01/09 09:35:02;;;;;;;49.23;23.10;;;0.40;99.90;;;;;;4411395;32;20204;-67
2022/01/09 09:37:30;;;;;;;48.97;22.80;;;0.30;99.90;;;;;;4409723;32;20205;-68
2022/01/09 09:40:00;;;;;;;46.67;23.23;;;0.30;99.90;;;;;;4411090;32;20170;-67
2022/01/09 09:42:28;;;;;;;53.60;24.13;;;0.40;99.90;;;;;;4410507;32;20202;-67
2022/01/09 09:45:00;;;;;;;46.00;23.10;;;0.50;99.90;;;;;;4407233;32;20182;-67
2022/01/09 09:47:33;;;;;;;48.33;22.60;;;0.50;99.90;;;;;;4404551;32;20170;-67
2022/01/09 09:50:02;;;;;;;50.13;23.50;;;0.60;99.90;;;;;;4410157;32;20400;-67
2022/01/09 09:52:33;;;;;;;48.33;23.53;;;0.60;99.90;;;;;;4410841;32;20182;-67
2022/01/09 09:55:04;;;;;;;44.73;22.07;;;0.70;99.90;;;;;;4411825;32;20219;-67
2022/01/09 09:57:31;;;;;;;46.13;23.43;;;0.70;99.90;;;;;;4425301;32;20178;-67
2022/01/09 10:00:20;;;;;;;45.73;22.47;;;0.70;99.90;;;;;;4411051;32;20558;-68
2022/01/09 10:02:59;;;;;;;45.73;21.30;;;0.70;99.90;;;;;;4411312;32;20220;-68
2022/01/09 10:05:38;;;;;;;42.77;21.17;;;0.80;99.90;;;;;;4411463;32;20230;-67
2022/01/09 10:08:11;;;;;;;44.33;21.63;;;0.80;99.90;;;;;;4425482;32;20227;-68
2022/01/09 10:10:39;;;;;;;44.83;20.30;;;0.80;99.90;;;;;;4411738;32;20190;-68
2022/01/09 10:13:19;;;;;;;42.40;20.10;;;0.80;99.90;;;;;;4410577;32;20176;-68
2022/01/09 10:15:50;;;;;;;44.33;20.37;;;0.90;99.90;;;;;;4425725;32;20169;-68
2022/01/09 10:18:41;;;;;;;40.87;19.87;;;0.90;99.90;;;;;;4411598;32;20201;-67
2022/01/09 10:21:16;;;;;;;42.80;20.53;;;1.00;99.90;;;;;;4425069;32;20214;-68
2022/01/09 10:24:04;;;;;;;40.20;19.87;;;1.00;99.90;;;;;;4410764;32;20277;-67
2022/01/09 10:26:34;;;;;;;43.90;21.17;;;1.10;99.90;;;;;;4425535;32;20170;-67
2022/01/09 10:29:07;;;;;;;43.50;20.90;;;1.10;99.90;;;;;;4411355;32;20178;-68
2022/01/09 10:31:45;;;;;;;42.90;21.30;;;1.10;99.90;;;;;;4410571;32;20558;-68
2022/01/09 10:34:17;;;;;;;45.93;21.63;;;1.20;99.90;;;;;;4424131;32;20169;-68
2022/01/09 10:36:48;;;;;;;45.77;20.80;;;1.30;99.90;;;;;;4411592;32;20559;-68
2022/01/09 10:39:39;;;;;;;43.17;21.07;;;1.30;99.90;;;;;;4411107;32;20221;-68
2022/01/09 10:42:12;;;;;;;45.63;21.77;;;1.30;99.90;;;;;;4410299;32;20242;-67
2022/01/09 10:44:43;;;;;;;48.00;22.23;;;1.40;99.90;;;;;;4410483;32;20171;-67
2022/01/09 10:47:14;;;;;;;48.83;21.33;;;1.40;99.90;;;;;;4410352;32;20201;-67
2022/01/09 10:49:45;;;;;;;46.37;21.53;;;1.30;99.90;;;;;;4410934;32;20213;-68
2022/01/09 10:52:50;;;;;;;45.27;22.03;;;1.30;99.90;;;;;;4424825;32;20377;-69
2022/01/09 10:55:18;;;;;;;48.50;22.93;;;1.40;99.90;;;;;;4346918;33;20275;-68
2022/01/09 10:57:46;;;;;;;49.53;23.10;;;1.40;99.90;;;;;;4346920;33;20158;-68
2022/01/09 11:00:19;;;;;;;47.57;22.67;;;1.40;99.90;;;;;;4334398;33;20486;-68
2022/01/09 11:02:54;;;;;;;46.87;23.20;;;1.50;99.90;;;;;;4334078;33;20187;-68
2022/01/09 11:05:22;;;;;;;47.37;22.80;;;1.40;99.90;;;;;;4334251;33;20508;-67
2022/01/09 11:07:50;;;;;;;45.37;22.83;;;1.40;99.90;;;;;;4328399;33;20185;-68
2022/01/09 11:10:18;;;;;;;45.43;22.40;;;1.50;99.90;;;;;;4330519;33;20202;-67
2022/01/09 11:12:48;;;;;;;44.37;22.47;;;1.50;99.90;;;;;;4346648;33;20164;-67
2022/01/09 11:15:21;;;;;;;47.40;23.50;;;1.50;99.90;;;;;;4334073;33;20192;-67
2022/01/09 11:17:52;;;;;;;43.47;22.33;;;1.50;99.90;;;;;;4333436;33;20180;-67
2022/01/09 11:20:20;;;;;;;43.50;22.30;;;1.50;99.90;;;;;;4334133;33;20185;-67
2022/01/09 11:22:48;;;;;;;43.87;22.17;;;1.50;99.90;;;;;;4346047;33;20560;-67
2022/01/09 11:25:20;;;;;;;43.97;21.20;;;1.50;99.90;;;;;;4346689;33;20160;-67
2022/01/09 11:28:07;;;;;;;42.50;21.03;;;1.50;99.90;;;;;;4333983;33;20243;-67
2022/01/09 11:30:57;;;;;;;40.93;20.03;;;1.50;99.90;;;;;;4345629;33;20164;-67
2022/01/09 11:34:00;;;;;;;42.03;20.20;;;1.60;99.90;;;;;;4403734;32;20236;-67
2022/01/09 11:37:14;;;;;;;41.27;20.93;;;1.50;99.90;;;;;;4319869;33;20572;-68
2022/01/09 11:39:43;;;;;;;41.23;19.07;;;1.50;99.90;;;;;;4288900;33;20615;-67
2022/01/09 11:42:21;;;;;;;39.43;19.13;;;1.50;99.90;;;;;;4287677;33;20186;-67
2022/01/09 11:44:57;;;;;;;42.23;19.57;;;1.60;99.90;;;;;;4288028;33;20436;-67
2022/01/09 11:47:26;;;;;;;38.80;19.40;;;1.70;99.90;;;;;;4287662;33;20193;-66
2022/01/09 11:49:55;;;;;;;38.07;19.37;;;2.10;99.90;;;;;;4287164;33;20225;-67
2022/01/09 11:52:27;;;;;;;37.97;17.90;;;2.80;99.90;;;;;;4287558;33;20189;-67
2022/01/09 11:55:08;;;;;;;35.77;17.83;;;3.60;99.90;;;;;;4287773;33;20212;-67
2022/01/09 11:57:58;;;;;;;32.33;16.80;;;4.20;99.90;;;;;;4287146;33;20253;-67
2022/01/09 12:00:51;;;;;;;34.30;17.13;;;4.90;99.90;;;;;;4275123;33;20242;-67
2022/01/09 12:03:54;;;;;;;32.80;16.27;;;5.80;99.90;;;;;;4289984;33;20667;-67
2022/01/09 12:09:42;;;;;;;29.33;15.70;;;6.90;99.90;;;;;;4247252;33;20210;-67
2022/01/09 12:12:43;;;;;;;28.40;15.10;;;6.80;99.90;;;;;;4253083;33;20165;-67
2022/01/09 12:15:44;;;;;;;30.90;15.13;;;6.30;99.90;;;;;;4346214;33;20245;-67
2022/01/09 12:18:42;;;;;;;27.23;14.67;;;5.50;99.90;;;;;;4334944;33;20206;-67
2022/01/09 12:21:51;;;;;;;28.40;14.00;;;5.00;99.90;;;;;;4346107;33;20172;-67
2022/01/09 12:24:46;;;;;;;28.87;14.17;;;4.60;99.90;;;;;;4345692;33;20234;-67
2022/01/09 12:27:48;;;;;;;26.80;13.80;;;4.20;99.90;;;;;;4334138;33;20177;-67
2022/01/09 12:30:40;;;;;;;25.17;13.17;;;3.90;99.90;;;;;;4345502;33;20176;-67
2022/01/09 12:33:25;;;;;;;28.37;13.07;;;3.60;99.90;;;;;;4336073;33;20190;-67
2022/01/09 12:35:59;;;;;;;26.83;12.90;;;3.30;99.90;;;;;;4348756;33;20227;-67
2022/01/09 12:38:56;;;;;;;;;;;;;;;;;;;;;
2022/01/09 12:41:38;;;;;;;27.43;12.97;;;3.00;99.90;;;;;;4336497;33;20185;-67
2022/01/09 12:44:13;;;;;;;24.00;12.43;;;2.80;99.90;;;;;;4336698;33;20461;-67
2022/01/09 12:46:54;;;;;;;26.50;12.33;;;2.70;99.90;;;;;;4372996;32;20203;-67
2022/01/09 12:50:13;;;;;;;24.30;12.47;;;2.50;99.90;;;;;;4411414;32;20478;-67
2022/01/09 12:52:40;;;;;;;25.40;12.00;;;2.50;99.90;;;;;;4396224;32;20187;-67
2022/01/09 12:55:12;;;;;;;23.70;11.73;;;2.40;99.90;;;;;;4397527;32;20201;-67
2022/01/09 12:58:04;;;;;;;22.67;11.80;;;2.40;99.90;;;;;;4396740;32;20567;-67
2022/01/09 13:01:17;;;;;;;23.77;12.03;;;2.40;99.90;;;;;;4396873;32;20245;-68
2022/01/09 13:04:04;;;;;;;24.63;12.00;;;2.40;99.90;;;;;;4410808;32;20203;-67
2022/01/09 13:06:37;;;;;;;23.80;12.00;;;2.50;99.90;;;;;;4397012;32;20213;-67
2022/01/09 13:09:15;;;;;;;23.70;12.10;;;2.80;99.90;;;;;;4397787;32;20195;-67
2022/01/09 13:12:07;;;;;;;24.40;12.30;;;3.40;99.90;;;;;;4411117;32;20466;-67
2022/01/09 13:14:45;;;;;;;24.83;12.70;;;3.90;99.90;;;;;;4394826;32;20626;-67
2022/01/09 13:17:19;;;;;;;23.10;12.27;;;4.50;99.90;;;;;;4414157;32;20187;-69
2022/01/09 13:20:19;;;;;;;23.30;11.97;;;5.00;99.90;;;;;;4411736;32;20187;-67
2022/01/09 13:23:12;;;;;;;26.17;12.63;;;5.60;99.90;;;;;;4411697;32;20182;-67
2022/01/09 13:25:51;;;;;;;21.87;12.03;;;6.10;99.90;;;;;;4411867;32;20186;-67
2022/01/09 13:28:27;;;;;;;22.60;12.07;;;6.40;99.90;;;;;;4426200;32;20462;-67
2022/01/09 13:31:22;;;;;;;24.33;12.10;;;6.50;99.90;;;;;;4412155;32;20479;-67
2022/01/09 13:34:04;;;;;;;24.40;12.57;;;6.70;99.90;;;;;;4411996;32;20226;-68
2022/01/09 13:37:11;;;;;;;23.40;12.87;;;6.70;99.90;;;;;;4412184;32;20233;-67
2022/01/09 13:40:08;;;;;;;25.40;13.20;;;6.80;99.90;;;;;;4333689;33;20197;-67
2022/01/09 13:42:46;;;;;;;23.63;12.87;;;6.90;99.90;;;;;;4321671;33;20192;-68
2022/01/09 13:45:22;;;;;;;24.07;13.00;;;6.90;99.90;;;;;;4321029;33;20237;-68
2022/01/09 13:48:05;;;;;;;24.97;13.27;;;6.80;99.90;;;;;;4333658;33;20215;-67
2022/01/09 13:50:52;;;;;;;25.57;13.27;;;6.70;99.90;;;;;;4332862;33;20200;-68
2022/01/09 13:53:35;;;;;;;22.40;12.27;;;6.50;99.90;;;;;;4320563;33;20270;-67
2022/01/09 13:56:19;;;;;;;26.33;13.40;;;6.40;99.90;;;;;;4321699;33;20226;-67
2022/01/09 13:58:55;;;;;;;24.67;13.40;;;6.30;99.90;;;;;;4321110;33;20248;-67
2022/01/09 14:01:45;;;;;;;24.13;12.83;;;6.10;99.90;;;;;;4333840;33;20149;-67
2022/01/09 14:04:19;;;;;;;25.77;13.10;;;6.00;99.90;;;;;;4332949;33;20194;-67